Time;durP1;ratioP1;P1;durP2;ratioP2;P2;SDS_P1;SDS_P2;PMS_P1;PMS_P2;Temp;Humidity;BMP_temperature;BMP_pressure;BME280_temperature;BME280_humidity;BME280_pressure;Samples;Min_cycle;Max_cycle;Signal;HPM_P1;HPM_P2
2023/06/15 00:16:19;;;;;;;;;;;;;;;;;;;;;
2023/06/15 00:19:37;;;;;;;9.93;9.13;;;17.90;99.90;;;;;;4823261;29;20458;-78
2023/06/15 00:23:07;;;;;;;10.27;9.27;;;17.90;99.90;;;;;;4889462;29;20586;-77
2023/06/15 00:29:06;;;;;;;9.03;7.33;;;18.00;99.90;;;;;;4898316;29;20457;-78
2023/06/15 00:41:09;;;;;;;6.70;6.17;;;17.90;99.90;;;;;;4912636;29;20560;-78
2023/06/15 00:44:13;;;;;;;6.83;6.37;;;17.80;99.90;;;;;;4918227;29;20475;-78
2023/06/15 00:54:35;;;;;;;6.57;6.07;;;17.70;99.90;;;;;;4907755;29;20458;-79
2023/06/15 01:07:27;;;;;;;6.47;6.07;;;17.60;99.90;;;;;;4925750;29;20449;-78
2023/06/15 01:10:00;;;;;;;7.20;6.60;;;17.60;99.90;;;;;;4954370;28;20449;-77
2023/06/15 01:12:29;;;;;;;6.20;5.67;;;17.60;99.90;;;;;;5005582;28;20550;-78
2023/06/15 01:18:10;;;;;;;6.97;6.50;;;17.40;99.90;;;;;;5001969;28;20453;-78
2023/06/15 01:21:04;;;;;;;6.60;6.10;;;17.40;99.90;;;;;;5027042;28;20511;-79
2023/06/15 01:23:56;;;;;;;7.07;6.57;;;17.40;99.90;;;;;;5043689;28;20441;-78
2023/06/15 01:26:34;;;;;;;7.80;7.00;;;17.30;99.90;;;;;;5043234;28;20492;-77
2023/06/15 01:29:20;;;;;;;6.80;6.30;;;17.30;99.90;;;;;;5044657;28;20447;-79
2023/06/15 01:31:59;;;;;;;6.37;5.87;;;17.30;99.90;;;;;;5043459;28;20526;-78
2023/06/15 01:34:34;;;;;;;7.80;7.30;;;17.30;99.90;;;;;;5044935;28;20437;-77
2023/06/15 01:37:19;;;;;;;6.47;6.07;;;17.20;99.90;;;;;;5043897;28;20797;-78
2023/06/15 01:45:57;;;;;;;6.60;6.10;;;17.20;99.90;;;;;;5042648;28;20846;-78
2023/06/15 01:49:30;;;;;;;;;;;;;;;;;;;;;
2023/06/15 01:55:57;;;;;;;6.47;5.93;;;17.10;99.90;;;;;;5032812;28;20452;-77
2023/06/15 02:02:20;;;;;;;;;;;;;;;;;;;;;
2023/06/15 02:05:09;;;;;;;7.20;6.33;;;17.00;99.90;;;;;;5043948;28;20474;-78
2023/06/15 02:10:54;;;;;;;6.77;6.27;;;17.00;99.90;;;;;;5019150;28;20854;-76
2023/06/15 02:13:44;;;;;;;7.43;6.70;;;16.90;99.90;;;;;;5042966;28;20469;-78
2023/06/15 02:20:41;;;;;;;;;;;;;;;;;;;;;
2023/06/15 02:31:25;;;;;;;;;;;;;;;;;;;;;
2023/06/15 02:41:04;;;;;;;6.37;5.97;;;16.70;99.90;;;;;;4998439;28;20517;-75
2023/06/15 02:48:03;;;;;;;;;;;;;;;;;;;;;
2023/06/15 02:57:42;;;;;;;7.10;6.50;;;16.60;99.90;;;;;;4966875;28;20444;-76
2023/06/15 03:00:42;;;;;;;7.30;6.70;;;16.50;99.90;;;;;;5041130;28;20647;-76
2023/06/15 03:03:28;;;;;;;7.23;6.63;;;16.40;99.90;;;;;;5041045;28;20530;-76
2023/06/15 03:06:18;;;;;;;6.80;6.20;;;16.30;99.90;;;;;;5042590;28;20475;-77
2023/06/15 03:08:59;;;;;;;7.03;6.43;;;16.30;99.90;;;;;;5043032;28;20460;-76
2023/06/15 03:11:33;;;;;;;6.17;5.70;;;16.20;99.90;;;;;;5046575;28;20476;-76
2023/06/15 03:17:37;;;;;;;7.37;6.80;;;16.20;99.90;;;;;;5038234;28;20469;-76
2023/06/15 03:23:55;;;;;;;7.33;6.73;;;16.10;99.90;;;;;;5003805;28;20466;-75
2023/06/15 03:26:42;;;;;;;7.43;6.93;;;16.10;99.90;;;;;;4954175;28;20500;-77
2023/06/15 03:30:07;;;;;;;7.43;6.93;;;16.10;99.90;;;;;;5045232;28;20471;-76
2023/06/15 03:32:55;;;;;;;7.53;6.87;;;16.00;99.90;;;;;;5045425;28;20463;-77
2023/06/15 03:39:16;;;;;;;8.70;7.37;;;16.00;99.90;;;;;;5038664;28;20435;-77
2023/06/15 03:56:17;;;;;;;8.73;7.13;;;16.20;99.90;;;;;;4889454;29;20459;-77
2023/06/15 03:59:21;;;;;;;7.20;6.70;;;16.20;99.90;;;;;;4862209;29;20470;-77
2023/06/15 04:05:12;;;;;;;7.73;6.53;;;16.30;99.90;;;;;;4976393;28;20455;-76
2023/06/15 04:08:02;;;;;;;14.27;13.07;;;16.20;99.90;;;;;;4989138;28;20458;-77
2023/06/15 04:10:36;;;;;;;7.63;7.03;;;16.30;99.90;;;;;;4984019;28;20474;-76
2023/06/15 04:13:08;;;;;;;7.13;6.63;;;16.30;99.90;;;;;;4983688;28;20470;-78
2023/06/15 04:15:42;;;;;;;8.00;7.40;;;16.40;99.90;;;;;;4984670;28;20490;-77
2023/06/15 04:18:22;;;;;;;8.17;7.47;;;16.40;99.90;;;;;;4984095;28;20438;-79
2023/06/15 04:21:03;;;;;;;7.33;6.63;;;16.50;99.90;;;;;;4984481;28;20500;-77
2023/06/15 04:23:43;;;;;;;11.70;10.53;;;16.60;99.90;;;;;;5042779;28;20462;-77
2023/06/15 04:26:14;;;;;;;7.27;6.63;;;16.60;99.90;;;;;;5051456;28;20540;-77
2023/06/15 04:28:52;;;;;;;8.20;7.40;;;16.80;99.90;;;;;;5051436;28;20917;-76
2023/06/15 04:31:40;;;;;;;7.80;7.03;;;16.80;99.90;;;;;;5052986;28;20480;-76
2023/06/15 04:34:15;;;;;;;7.57;6.97;;;16.80;99.90;;;;;;5052030;28;20467;-77
2023/06/15 04:47:20;;;;;;;7.53;6.77;;;17.10;99.90;;;;;;4963183;28;20499;-77
2023/06/15 04:54:04;;;;;;;7.53;6.93;;;17.50;99.90;;;;;;4955836;29;20528;-78
2023/06/15 04:57:12;;;;;;;8.47;7.70;;;17.30;99.90;;;;;;4945175;28;20459;-78
2023/06/15 05:03:18;;;;;;;;;;;;;;;;;;;;;
2023/06/15 05:06:19;;;;;;;7.93;7.33;;;17.30;99.90;;;;;;5011261;28;20490;-78
2023/06/15 05:08:57;;;;;;;8.30;7.50;;;17.50;99.90;;;;;;5010472;28;20457;-78
2023/06/15 05:11:30;;;;;;;7.93;7.40;;;17.60;99.90;;;;;;5007885;28;20561;-79
2023/06/15 05:14:13;;;;;;;;;;;;;;;;;;;;;
2023/06/15 05:17:08;;;;;;;7.43;6.83;;;17.70;99.90;;;;;;5010429;28;20444;-79
2023/06/15 05:20:18;;;;;;;7.67;6.87;;;17.70;99.90;;;;;;5011808;28;20468;-78
2023/06/15 05:23:08;;;;;;;6.93;6.43;;;17.90;99.90;;;;;;5023498;28;20477;-77
2023/06/15 05:25:58;;;;;;;7.20;6.60;;;18.00;99.90;;;;;;5027726;28;20461;-79
2023/06/15 05:28:28;;;;;;;7.77;7.20;;;18.10;99.90;;;;;;5025716;28;20457;-78
2023/06/15 05:31:13;;;;;;;6.93;6.43;;;18.10;99.90;;;;;;5028604;28;20479;-78
2023/06/15 05:33:48;;;;;;;7.70;6.97;;;18.10;99.90;;;;;;5024993;28;20455;-79
2023/06/15 05:36:30;;;;;;;8.03;7.33;;;18.10;99.90;;;;;;5026085;28;20924;-78
2023/06/15 05:38:59;;;;;;;7.60;7.00;;;18.20;99.90;;;;;;5024369;28;20854;-77
2023/06/15 05:41:35;;;;;;;7.13;6.53;;;18.30;99.90;;;;;;5025656;28;20483;-78
2023/06/15 05:44:03;;;;;;;7.43;6.80;;;18.20;99.90;;;;;;5024686;28;20449;-78
2023/06/15 05:46:45;;;;;;;8.90;6.43;;;18.40;99.90;;;;;;5024339;28;20485;-77
2023/06/15 05:49:17;;;;;;;7.60;7.00;;;18.50;99.90;;;;;;5025078;28;20448;-78
2023/06/15 05:51:49;;;;;;;7.20;6.70;;;18.60;99.90;;;;;;5021856;28;20503;-78
2023/06/15 05:54:20;;;;;;;9.43;6.90;;;18.60;99.90;;;;;;5021918;28;20464;-77
2023/06/15 05:56:50;;;;;;;7.40;6.80;;;18.60;99.90;;;;;;5021310;28;20530;-78
2023/06/15 05:59:19;;;;;;;6.93;6.43;;;18.60;99.90;;;;;;5019276;28;20461;-76
2023/06/15 06:01:50;;;;;;;8.33;6.77;;;18.70;99.90;;;;;;5019447;28;20496;-79
2023/06/15 06:04:31;;;;;;;8.03;7.33;;;18.80;99.90;;;;;;5019895;28;20560;-79
2023/06/15 06:07:06;;;;;;;7.80;7.00;;;19.00;99.90;;;;;;5023540;28;20476;-79
2023/06/15 06:09:35;;;;;;;8.00;7.20;;;18.90;99.90;;;;;;5025502;28;20454;-78
2023/06/15 06:12:12;;;;;;;8.20;7.50;;;19.00;99.90;;;;;;5024389;28;20563;-78
2023/06/15 06:14:57;;;;;;;8.50;7.60;;;18.90;99.90;;;;;;5021007;28;20576;-78
2023/06/15 06:17:38;;;;;;;7.30;6.70;;;19.00;99.90;;;;;;5021018;28;20449;-78
2023/06/15 06:20:25;;;;;;;7.27;6.30;;;19.10;99.90;;;;;;5019115;28;20508;-77
2023/06/15 06:22:57;;;;;;;7.40;6.90;;;19.20;99.90;;;;;;5017981;28;20441;-78
2023/06/15 06:25:35;;;;;;;7.73;7.13;;;19.40;99.90;;;;;;5018141;28;20480;-79
2023/06/15 06:28:03;;;;;;;8.60;7.80;;;19.40;99.90;;;;;;5017306;28;20464;-78
2023/06/15 06:30:32;;;;;;;8.63;7.73;;;19.40;99.90;;;;;;5016323;28;20439;-77
2023/06/15 06:33:00;;;;;;;8.20;7.40;;;19.50;99.90;;;;;;5015632;28;20526;-80
2023/06/15 06:35:29;;;;;;;7.60;7.00;;;19.60;99.90;;;;;;5014676;28;20868;-78
2023/06/15 06:37:58;;;;;;;8.07;7.47;;;19.60;99.90;;;;;;5015905;28;20449;-78
2023/06/15 06:40:27;;;;;;;7.10;6.50;;;19.80;99.90;;;;;;5017057;28;20438;-77
2023/06/15 06:43:29;;;;;;;7.80;7.20;;;19.80;99.90;;;;;;5018059;28;20470;-77
2023/06/15 06:52:07;;;;;;;9.60;7.50;;;20.10;99.90;;;;;;5017143;28;20453;-77
2023/06/15 06:54:41;;;;;;;7.67;7.17;;;20.10;99.90;;;;;;5019463;28;20446;-79
2023/06/15 06:57:31;;;;;;;7.27;6.60;;;20.20;99.90;;;;;;5016363;28;20532;-76
2023/06/15 07:00:12;;;;;;;9.73;7.73;;;20.20;99.90;;;;;;5013743;28;20438;-76
2023/06/15 07:02:55;;;;;;;7.07;6.47;;;20.10;99.90;;;;;;5013852;28;20477;-77
2023/06/15 07:05:51;;;;;;;8.17;7.57;;;20.20;99.90;;;;;;4978791;28;20453;-78
2023/06/15 07:08:36;;;;;;;10.53;7.10;;;20.40;99.90;;;;;;5013402;28;20476;-77
2023/06/15 07:11:11;;;;;;;8.43;7.50;;;20.30;99.90;;;;;;5014445;28;20455;-78
2023/06/15 07:13:39;;;;;;;8.70;7.90;;;20.30;99.90;;;;;;5016897;28;20984;-78
2023/06/15 07:16:07;;;;;;;7.13;6.50;;;20.00;99.90;;;;;;5017033;28;20434;-79
2023/06/15 07:18:38;;;;;;;7.63;7.00;;;20.20;99.90;;;;;;5018235;28;20431;-78
2023/06/15 07:21:06;;;;;;;7.63;7.03;;;20.30;99.90;;;;;;5017827;28;20457;-77
2023/06/15 07:23:35;;;;;;;8.10;7.30;;;20.30;99.90;;;;;;5020321;28;20465;-77
2023/06/15 07:26:03;;;;;;;8.10;7.50;;;20.30;99.90;;;;;;5020314;28;20439;-77
2023/06/15 07:28:42;;;;;;;8.37;7.80;;;20.30;99.90;;;;;;5020131;28;20918;-77
2023/06/15 07:31:14;;;;;;;9.33;7.70;;;20.50;99.90;;;;;;5001552;28;20776;-78
2023/06/15 07:33:59;;;;;;;7.70;6.60;;;20.60;99.90;;;;;;5019975;28;20990;-78
2023/06/15 07:36:44;;;;;;;8.00;7.50;;;20.70;99.90;;;;;;5016097;28;20814;-77
2023/06/15 07:39:35;;;;;;;8.43;7.63;;;20.60;99.90;;;;;;5016344;28;20458;-77
2023/06/15 07:42:09;;;;;;;12.87;11.37;;;20.80;99.90;;;;;;5016956;28;20889;-79
2023/06/15 07:44:40;;;;;;;11.57;7.00;;;20.90;99.90;;;;;;5015555;28;20455;-78
2023/06/15 07:47:35;;;;;;;8.10;7.50;;;20.90;99.90;;;;;;5021203;28;20565;-77
2023/06/15 07:50:10;;;;;;;7.73;6.97;;;20.80;99.90;;;;;;5021949;28;20533;-78
2023/06/15 07:52:57;;;;;;;7.67;7.17;;;21.00;99.90;;;;;;5015986;28;20549;-77
2023/06/15 07:55:44;;;;;;;9.83;7.93;;;21.10;99.90;;;;;;5020693;28;20450;-78
2023/06/15 07:58:17;;;;;;;8.37;7.57;;;21.10;99.90;;;;;;5024167;28;20740;-79
2023/06/15 08:00:49;;;;;;;7.40;6.80;;;21.10;99.90;;;;;;5024637;28;20442;-77
2023/06/15 08:03:26;;;;;;;7.60;6.70;;;21.20;99.90;;;;;;5025352;28;20551;-79
2023/06/15 08:05:58;;;;;;;7.57;6.87;;;21.30;99.90;;;;;;5022785;28;20481;-80
2023/06/15 08:08:30;;;;;;;7.77;7.17;;;21.60;99.90;;;;;;5022158;28;20537;-77
2023/06/15 08:11:00;;;;;;;8.13;7.53;;;21.70;99.90;;;;;;5019491;28;20461;-77
2023/06/15 08:13:31;;;;;;;6.77;6.23;;;21.60;99.90;;;;;;5018554;28;20556;-78
2023/06/15 08:16:00;;;;;;;7.63;6.83;;;21.70;99.90;;;;;;5021323;28;20545;-78
2023/06/15 08:18:31;;;;;;;7.80;7.20;;;22.00;99.90;;;;;;5019349;28;20453;-80
2023/06/15 08:21:06;;;;;;;7.17;6.57;;;22.00;99.90;;;;;;5020775;28;20825;-77
2023/06/15 08:23:34;;;;;;;7.60;7.00;;;22.10;99.90;;;;;;5023722;28;20461;-79
2023/06/15 08:26:04;;;;;;;6.90;6.47;;;22.10;99.90;;;;;;5023567;28;20495;-78
2023/06/15 08:28:32;;;;;;;7.83;7.23;;;22.00;99.90;;;;;;5021288;28;20478;-79
2023/06/15 08:31:03;;;;;;;8.07;7.33;;;22.20;99.90;;;;;;5020744;28;20472;-80
2023/06/15 08:33:31;;;;;;;7.83;7.17;;;22.30;99.90;;;;;;5040308;28;20481;-79
2023/06/15 08:36:01;;;;;;;8.80;8.00;;;22.20;99.90;;;;;;5042116;28;20528;-79
2023/06/15 08:38:32;;;;;;;8.63;7.80;;;22.20;99.90;;;;;;5040959;28;20445;-77
2023/06/15 08:41:03;;;;;;;7.33;6.73;;;22.40;99.90;;;;;;5037861;28;20584;-79
2023/06/15 08:43:33;;;;;;;7.77;7.10;;;22.60;99.90;;;;;;5038702;28;20462;-78
2023/06/15 08:46:08;;;;;;;8.33;6.90;;;22.80;99.90;;;;;;5040849;28;20459;-80
2023/06/15 08:48:40;;;;;;;7.13;6.43;;;22.80;99.90;;;;;;5040947;28;20575;-77
2023/06/15 08:51:09;;;;;;;7.13;6.43;;;23.00;99.90;;;;;;5041445;28;20460;-78
2023/06/15 08:53:42;;;;;;;6.90;6.20;;;23.10;99.90;;;;;;5041583;28;20463;-77
2023/06/15 08:56:16;;;;;;;6.63;6.03;;;23.00;99.90;;;;;;5040776;28;20461;-79
2023/06/15 08:58:50;;;;;;;7.20;6.50;;;23.00;99.90;;;;;;5037922;28;20453;-79
2023/06/15 09:01:39;;;;;;;6.90;6.30;;;23.30;99.90;;;;;;5037555;28;20460;-77
2023/06/15 09:04:09;;;;;;;6.40;5.80;;;23.70;99.90;;;;;;5037723;28;20535;-78
2023/06/15 09:06:45;;;;;;;6.80;6.30;;;23.90;99.90;;;;;;5043340;28;20564;-77
2023/06/15 09:09:15;;;;;;;6.47;5.83;;;24.00;99.90;;;;;;5040644;28;20951;-77
2023/06/15 09:17:54;;;;;;;7.20;6.50;;;24.00;99.90;;;;;;4997261;28;20458;-79
2023/06/15 09:21:01;;;;;;;7.67;5.67;;;24.20;99.90;;;;;;5032291;28;20962;-78
2023/06/15 09:23:34;;;;;;;6.38;5.97;;;24.50;99.90;;;;;;5019667;28;20447;-77
2023/06/15 09:26:05;;;;;;;6.03;5.63;;;24.60;99.40;;;;;;5019218;28;20214;-75
2023/06/15 09:28:45;;;;;;;5.83;5.27;;;24.70;98.60;;;;;;5020377;28;20890;-76
2023/06/15 09:31:30;;;;;;;6.00;5.50;;;25.00;98.30;;;;;;5021270;28;20539;-76
2023/06/15 09:34:05;;;;;;;6.23;5.60;;;24.90;97.50;;;;;;5022939;28;20470;-79
2023/06/15 09:36:54;;;;;;;5.83;5.30;;;24.40;97.30;;;;;;5042637;28;20520;-78
2023/06/15 09:39:24;;;;;;;5.50;5.10;;;24.50;97.10;;;;;;5041464;28;20484;-79
2023/06/15 09:42:09;;;;;;;8.23;5.90;;;24.80;96.80;;;;;;5036378;28;20487;-79
2023/06/15 09:44:44;;;;;;;5.77;5.37;;;24.80;96.20;;;;;;5036029;28;20889;-78
2023/06/15 09:47:38;;;;;;;5.63;5.23;;;25.30;95.20;;;;;;5035622;28;20480;-76
2023/06/15 09:50:11;;;;;;;5.80;5.40;;;24.90;95.20;;;;;;5035826;28;20422;-77
2023/06/15 09:52:44;;;;;;;5.90;5.50;;;25.50;94.70;;;;;;5035611;28;20482;-77
2023/06/15 09:55:16;;;;;;;5.37;4.93;;;26.00;93.30;;;;;;5037058;28;20870;-78
2023/06/15 09:57:49;;;;;;;5.07;4.73;;;26.10;91.60;;;;;;5037435;28;20458;-79
2023/06/15 10:00:22;;;;;;;5.20;4.80;;;26.10;90.40;;;;;;5040111;28;20440;-79
2023/06/15 10:02:59;;;;;;;4.97;4.57;;;26.50;90.60;;;;;;5038843;28;20505;-78
2023/06/15 10:05:39;;;;;;;5.60;5.20;;;26.60;89.90;;;;;;5038385;28;20464;-78
2023/06/15 10:08:22;;;;;;;5.37;4.93;;;26.60;88.10;;;;;;5039294;28;20999;-77
2023/06/15 10:11:11;;;;;;;5.23;4.83;;;26.40;86.30;;;;;;5038819;28;20457;-78
2023/06/15 10:13:53;;;;;;;5.00;4.70;;;26.90;85.50;;;;;;5040748;28;20488;-79
2023/06/15 10:16:25;;;;;;;5.13;4.77;;;26.80;86.70;;;;;;5037861;28;20464;-79
2023/06/15 10:19:12;;;;;;;4.60;4.30;;;27.20;86.80;;;;;;5036892;28;20454;-77
2023/06/15 10:21:47;;;;;;;5.07;4.77;;;27.40;84.20;;;;;;5020203;28;20472;-79
2023/06/15 10:27:21;;;;;;;4.57;4.30;;;27.70;79.20;;;;;;5033611;28;20446;-80
2023/06/15 10:30:21;;;;;;;5.33;5.03;;;27.20;76.00;;;;;;5031711;28;20455;-78
2023/06/15 10:33:13;;;;;;;4.47;4.27;;;27.70;76.90;;;;;;5017878;28;20534;-79
2023/06/15 10:36:06;;;;;;;5.30;4.80;;;27.70;77.80;;;;;;5018471;28;20447;-80
2023/06/15 10:38:49;;;;;;;4.90;4.53;;;27.90;76.60;;;;;;5018045;28;20450;-79
2023/06/15 10:41:27;;;;;;;5.20;4.90;;;27.20;75.50;;;;;;5019969;28;20454;-79
2023/06/15 10:44:12;;;;;;;5.50;4.53;;;27.80;74.60;;;;;;5017586;28;20537;-80
2023/06/15 10:46:47;;;;;;;4.77;4.40;;;28.20;73.40;;;;;;5018358;28;20454;-81
2023/06/15 10:49:32;;;;;;;4.50;4.20;;;28.20;71.50;;;;;;5023421;28;20544;-78
2023/06/15 10:52:08;;;;;;;4.50;4.20;;;27.90;72.20;;;;;;5032206;28;20475;-78
2023/06/15 10:54:39;;;;;;;5.30;5.00;;;27.90;72.50;;;;;;5016924;28;20533;-79
2023/06/15 10:57:15;;;;;;;4.60;4.30;;;27.90;72.00;;;;;;5017336;28;20675;-80
2023/06/15 10:59:54;;;;;;;5.40;4.43;;;28.30;72.50;;;;;;5017683;28;20469;-81
2023/06/15 11:02:59;;;;;;;4.77;4.20;;;28.50;70.80;;;;;;5017824;28;20477;-79
2023/06/15 11:05:43;;;;;;;5.50;5.10;;;28.50;71.30;;;;;;5018145;28;20455;-80
2023/06/15 11:08:24;;;;;;;4.80;4.40;;;28.70;71.50;;;;;;5017954;28;20483;-79
2023/06/15 11:11:01;;;;;;;4.87;4.47;;;28.70;68.40;;;;;;5018154;28;20446;-79
2023/06/15 11:13:36;;;;;;;4.90;4.60;;;28.00;71.00;;;;;;5017386;28;20474;-79
2023/06/15 11:16:11;;;;;;;5.17;4.53;;;28.20;67.60;;;;;;5018129;28;20488;-80
2023/06/15 11:19:21;;;;;;;4.63;4.13;;;28.50;69.90;;;;;;5021663;28;20442;-80
2023/06/15 11:22:04;;;;;;;4.40;4.20;;;28.50;67.30;;;;;;5022756;28;20573;-80
2023/06/15 11:24:38;;;;;;;4.77;4.47;;;28.20;68.00;;;;;;5021105;28;20534;-80
2023/06/15 11:27:12;;;;;;;4.77;4.47;;;28.60;68.60;;;;;;5020644;28;20480;-78
2023/06/15 11:29:42;;;;;;;4.63;4.20;;;28.90;67.60;;;;;;5016716;28;20482;-79
2023/06/15 11:39:01;;;;;;;4.40;4.10;;;29.60;63.40;;;;;;4941018;29;20550;-78
2023/06/15 11:41:32;;;;;;;4.13;3.87;;;29.90;63.90;;;;;;4885561;29;20480;-77
2023/06/15 11:44:02;;;;;;;4.67;4.27;;;29.90;62.20;;;;;;4956175;28;20525;-76
2023/06/15 11:46:34;;;;;;;4.10;3.90;;;29.90;61.80;;;;;;5018257;28;20486;-78
2023/06/15 11:49:10;;;;;;;3.97;3.63;;;29.70;59.20;;;;;;5018121;28;20703;-78
2023/06/15 11:51:47;;;;;;;4.20;3.90;;;29.50;59.90;;;;;;5019523;28;20562;-77
2023/06/15 11:54:24;;;;;;;6.33;4.27;;;29.50;60.30;;;;;;5018989;28;20553;-78
2023/06/15 11:57:09;;;;;;;4.50;4.20;;;29.10;62.70;;;;;;5019290;28;20981;-77
2023/06/15 11:59:50;;;;;;;4.70;4.33;;;29.70;62.80;;;;;;5019326;28;20509;-78
2023/06/15 12:02:21;;;;;;;4.90;4.60;;;29.60;63.60;;;;;;5018964;28;20479;-78
2023/06/15 12:04:52;;;;;;;4.63;4.23;;;28.80;65.00;;;;;;5018804;28;20542;-77
2023/06/15 12:07:44;;;;;;;4.93;4.53;;;29.60;64.50;;;;;;5019407;28;20552;-79
2023/06/15 12:13:21;;;;;;;5.63;5.13;;;29.00;64.60;;;;;;5021626;28;20508;-77
2023/06/15 12:16:07;;;;;;;5.03;4.63;;;29.10;64.10;;;;;;5024468;28;20450;-77
2023/06/15 12:19:31;;;;;;;7.13;5.10;;;29.40;63.80;;;;;;5022499;28;20733;-76
2023/06/15 12:22:08;;;;;;;4.57;4.20;;;29.30;63.50;;;;;;4904570;29;20476;-78
2023/06/15 12:24:53;;;;;;;;;;;;;;;;;;;;;
2023/06/15 12:27:31;;;;;;;4.37;4.17;;;29.50;60.60;;;;;;4999756;28;20460;-77
2023/06/15 12:33:28;;;;;;;4.53;4.33;;;29.00;61.70;;;;;;4937919;29;20470;-80
2023/06/15 12:35:58;;;;;;;4.80;4.40;;;29.00;62.70;;;;;;4953444;28;21020;-79
2023/06/15 12:38:29;;;;;;;5.17;4.77;;;28.60;62.90;;;;;;4999664;28;20535;-77
2023/06/15 12:40:59;;;;;;;5.00;4.70;;;29.50;61.10;;;;;;5018887;28;20451;-78
2023/06/15 12:43:36;;;;;;;4.70;4.40;;;29.10;60.80;;;;;;5016414;28;20486;-77
2023/06/15 12:46:09;;;;;;;3.90;3.60;;;29.70;60.20;;;;;;5017570;28;20470;-78
2023/06/15 12:48:41;;;;;;;4.33;4.03;;;30.30;58.80;;;;;;5019206;28;20477;-79
2023/06/15 12:51:11;;;;;;;5.07;4.67;;;30.60;57.70;;;;;;5025640;28;20466;-79
2023/06/15 12:53:49;;;;;;;4.20;4.00;;;30.90;57.80;;;;;;5023313;28;20482;-78
2023/06/15 12:56:40;;;;;;;8.20;7.60;;;31.20;56.70;;;;;;5021025;28;20450;-78
2023/06/15 12:59:12;;;;;;;4.93;4.00;;;31.20;56.40;;;;;;5021711;28;20440;-78
2023/06/15 13:01:45;;;;;;;4.40;4.10;;;30.80;56.80;;;;;;5023427;28;20509;-80
2023/06/15 13:04:15;;;;;;;4.60;4.20;;;31.00;56.00;;;;;;5019608;28;20550;-78
2023/06/15 13:06:42;;;;;;;4.70;4.40;;;30.50;56.40;;;;;;5018738;28;21263;-79
2023/06/15 13:09:10;;;;;;;5.20;4.47;;;29.60;58.00;;;;;;5016886;28;20478;-80
2023/06/15 13:11:40;;;;;;;4.97;4.67;;;28.90;57.60;;;;;;5017113;28;20451;-80
2023/06/15 13:14:08;;;;;;;4.97;4.57;;;28.40;58.50;;;;;;5020321;28;20482;-79
2023/06/15 13:16:37;;;;;;;4.60;4.40;;;29.30;58.70;;;;;;5018158;28;20477;-79
2023/06/15 13:19:11;;;;;;;4.43;4.23;;;29.50;56.90;;;;;;5019787;28;20459;-77
2023/06/15 13:21:39;;;;;;;4.47;4.17;;;29.30;57.50;;;;;;5018550;28;20485;-77
2023/06/15 13:24:07;;;;;;;4.10;3.90;;;29.90;57.70;;;;;;5018095;28;20455;-78
2023/06/15 13:26:34;;;;;;;4.23;3.93;;;30.30;55.40;;;;;;5019640;28;20834;-78
2023/06/15 13:29:02;;;;;;;4.23;4.00;;;30.40;54.90;;;;;;5022015;28;20475;-78
2023/06/15 13:31:30;;;;;;;3.90;3.70;;;30.40;53.50;;;;;;5022530;28;20977;-77
2023/06/15 13:34:11;;;;;;;3.67;3.43;;;30.30;54.60;;;;;;5020813;28;20463;-77
2023/06/15 13:36:41;;;;;;;4.17;3.97;;;30.60;53.90;;;;;;5024235;28;20485;-79
2023/06/15 13:39:12;;;;;;;4.63;4.20;;;30.40;53.40;;;;;;5025244;28;20940;-78
2023/06/15 13:41:41;;;;;;;4.03;3.80;;;30.40;55.10;;;;;;5025368;28;20989;-76
2023/06/15 13:44:18;;;;;;;4.20;3.90;;;30.70;56.10;;;;;;5024840;28;20501;-80
2023/06/15 13:46:48;;;;;;;4.00;3.80;;;30.60;56.00;;;;;;5020190;28;20453;-79
2023/06/15 13:49:24;;;;;;;4.27;3.97;;;30.40;55.50;;;;;;5018381;28;20475;-78
2023/06/15 13:55:09;;;;;;;4.20;3.90;;;29.60;56.00;;;;;;4913233;29;20868;-75
2023/06/15 13:57:46;;;;;;;4.27;3.87;;;29.40;56.20;;;;;;5010727;28;20450;-78
2023/06/15 14:00:27;;;;;;;4.33;4.03;;;29.10;56.30;;;;;;5021324;28;20455;-79
2023/06/15 14:02:55;;;;;;;3.63;3.30;;;29.00;56.60;;;;;;5019831;28;20478;-77
2023/06/15 14:05:23;;;;;;;3.63;3.37;;;29.00;57.20;;;;;;5020320;28;20463;-80
2023/06/15 14:07:52;;;;;;;5.03;4.13;;;29.10;57.60;;;;;;5020511;28;20439;-77
2023/06/15 14:10:20;;;;;;;4.10;3.80;;;29.40;56.70;;;;;;5018530;28;20544;-77
2023/06/15 14:12:57;;;;;;;4.40;4.10;;;29.60;55.50;;;;;;5021509;28;20485;-78
2023/06/15 14:19:14;;;;;;;3.73;3.53;;;29.50;56.20;;;;;;5032598;28;20391;-79
2023/06/15 14:21:55;;;;;;;4.73;4.40;;;29.10;56.50;;;;;;5025724;28;20835;-77
2023/06/15 14:24:24;;;;;;;3.57;3.37;;;29.00;56.30;;;;;;5023585;28;20791;-79
2023/06/15 14:26:59;;;;;;;3.93;3.63;;;28.50;56.80;;;;;;5021676;28;20439;-78
2023/06/15 14:29:45;;;;;;;4.60;4.23;;;28.90;57.50;;;;;;5019483;28;20708;-79
2023/06/15 14:32:20;;;;;;;4.33;3.93;;;28.20;56.80;;;;;;5018404;28;20524;-79
2023/06/15 14:34:59;;;;;;;3.90;3.70;;;28.70;56.50;;;;;;5020312;28;20465;-79
2023/06/15 14:37:32;;;;;;;3.40;3.20;;;29.30;55.50;;;;;;5019381;28;20918;-77
2023/06/15 14:40:04;;;;;;;3.47;3.23;;;29.70;54.60;;;;;;5019955;28;20481;-79
2023/06/15 14:42:33;;;;;;;5.33;3.80;;;30.20;53.70;;;;;;5020032;28;20509;-78
2023/06/15 14:45:03;;;;;;;3.37;3.17;;;30.60;53.60;;;;;;5022866;28;20478;-78
2023/06/15 14:47:35;;;;;;;6.00;3.50;;;30.60;52.70;;;;;;5021953;28;20509;-78
2023/06/15 14:50:12;;;;;;;3.40;3.13;;;30.50;53.20;;;;;;5023352;28;20479;-77
2023/06/15 14:52:41;;;;;;;4.00;3.70;;;30.50;53.40;;;;;;5023967;28;20474;-79
2023/06/15 14:55:23;;;;;;;4.20;3.50;;;30.30;53.40;;;;;;5026200;28;20443;-78
2023/06/15 14:58:09;;;;;;;3.60;3.40;;;30.50;53.70;;;;;;5027100;28;20454;-79
2023/06/15 15:01:00;;;;;;;3.70;3.40;;;30.60;53.00;;;;;;5028436;28;20454;-77
2023/06/15 15:03:33;;;;;;;3.80;3.50;;;30.90;52.50;;;;;;5029485;28;20497;-78
2023/06/15 15:06:08;;;;;;;3.63;3.20;;;30.80;52.40;;;;;;5029714;28;20465;-79
2023/06/15 15:08:36;;;;;;;4.73;3.20;;;30.70;51.60;;;;;;5030240;28;20482;-77
2023/06/15 15:11:13;;;;;;;3.20;3.07;;;31.00;51.50;;;;;;5025025;28;20454;-78
2023/06/15 15:13:47;;;;;;;3.57;3.27;;;31.40;51.20;;;;;;5021877;28;20455;-79
2023/06/15 15:16:23;;;;;;;3.03;2.83;;;30.70;50.90;;;;;;5022374;28;20457;-78
2023/06/15 15:19:32;;;;;;;3.47;3.27;;;30.10;50.00;;;;;;5021608;28;20538;-79
2023/06/15 15:25:32;;;;;;;3.30;3.10;;;30.30;49.70;;;;;;4987558;28;20437;-78
2023/06/15 15:28:14;;;;;;;2.90;2.80;;;29.60;49.70;;;;;;4985394;28;20448;-78
2023/06/15 15:30:43;;;;;;;3.37;3.07;;;29.10;50.00;;;;;;4999669;28;20483;-77
2023/06/15 15:33:13;;;;;;;3.40;3.20;;;29.20;49.60;;;;;;5003644;28;20471;-78
2023/06/15 15:35:42;;;;;;;3.00;2.80;;;29.30;49.80;;;;;;5003934;28;20453;-80
2023/06/15 15:38:16;;;;;;;3.03;2.83;;;30.10;49.30;;;;;;5002892;28;20455;-79
2023/06/15 15:40:44;;;;;;;3.00;2.90;;;29.70;48.60;;;;;;5000785;28;20451;-79
2023/06/15 15:43:24;;;;;;;3.53;3.23;;;29.60;49.70;;;;;;4999357;28;20451;-79
2023/06/15 15:45:52;;;;;;;3.07;2.87;;;29.60;49.50;;;;;;4999779;28;20494;-79
2023/06/15 15:48:21;;;;;;;4.00;3.00;;;30.50;49.50;;;;;;4997864;28;20468;-79
2023/06/15 15:50:49;;;;;;;3.67;3.47;;;30.60;49.30;;;;;;4999971;28;20540;-78
2023/06/15 15:53:22;;;;;;;3.53;3.33;;;30.10;48.40;;;;;;4997864;28;20991;-81
2023/06/15 15:55:51;;;;;;;3.47;3.00;;;30.10;48.70;;;;;;5000338;28;20438;-79
2023/06/15 15:58:26;;;;;;;3.17;2.97;;;30.10;47.90;;;;;;4996738;28;20458;-79
2023/06/15 16:00:57;;;;;;;3.23;3.03;;;30.00;47.70;;;;;;4995072;28;20443;-78
2023/06/15 16:03:27;;;;;;;8.00;3.43;;;29.50;48.90;;;;;;4994475;28;20475;-80
2023/06/15 16:06:02;;;;;;;3.20;3.00;;;29.70;48.60;;;;;;4996203;28;20452;-80
2023/06/15 16:08:35;;;;;;;3.10;2.90;;;30.20;48.10;;;;;;4996304;28;20480;-80
2023/06/15 16:11:04;;;;;;;3.50;3.30;;;30.20;47.80;;;;;;4997344;28;20451;-80
2023/06/15 16:13:38;;;;;;;6.07;3.00;;;30.20;47.80;;;;;;4999854;28;20447;-79
2023/06/15 16:16:22;;;;;;;3.50;3.30;;;29.60;47.90;;;;;;5002419;28;20451;-78
2023/06/15 16:18:51;;;;;;;3.83;3.53;;;29.00;49.40;;;;;;4998333;28;20439;-80
2023/06/15 16:21:26;;;;;;;5.47;3.13;;;28.90;49.30;;;;;;5016243;28;20858;-80
2023/06/15 16:23:55;;;;;;;3.60;3.40;;;28.40;49.60;;;;;;5020156;28;20470;-79
2023/06/15 16:26:28;;;;;;;3.60;3.30;;;28.20;49.10;;;;;;5021225;28;20431;-78
2023/06/15 16:28:59;;;;;;;3.60;3.40;;;28.20;49.00;;;;;;5026628;28;20514;-78
2023/06/15 16:31:31;;;;;;;3.70;3.40;;;27.50;49.40;;;;;;5026214;28;20545;-80
2023/06/15 16:34:02;;;;;;;3.53;3.23;;;27.30;50.30;;;;;;5028459;28;20465;-79
2023/06/15 16:36:30;;;;;;;3.33;3.13;;;27.60;50.40;;;;;;5033564;28;20438;-78
2023/06/15 16:39:04;;;;;;;3.63;3.37;;;28.30;49.20;;;;;;5041873;28;20565;-80
2023/06/15 16:41:32;;;;;;;3.77;3.50;;;27.70;49.20;;;;;;4999632;28;20476;-81
2023/06/15 16:44:20;;;;;;;3.20;3.00;;;27.60;49.20;;;;;;4998553;28;20526;-80
2023/06/15 16:47:09;;;;;;;3.30;3.10;;;27.70;49.70;;;;;;5000390;28;20459;-79
2023/06/15 16:53:11;;;;;;;3.87;3.57;;;28.10;49.40;;;;;;5000021;28;20554;-79
2023/06/15 16:55:39;;;;;;;4.10;3.90;;;28.80;49.30;;;;;;4978225;28;20452;-80
2023/06/15 16:58:38;;;;;;;4.27;3.40;;;28.50;49.20;;;;;;5004533;28;20459;-79